Time;durP1;ratioP1;P1;durP2;ratioP2;P2;SDS_P1;SDS_P2;PMS_P1;PMS_P2;Temp;Humidity;BMP_temperature;BMP_pressure;BME280_temperature;BME280_humidity;BME280_pressure;Samples;Min_cycle;Max_cycle;Signal;HPM_P1;HPM_P2
2021/01/02 00:00:48;;;;;;;15.48;10.32;;;3.10;99.90;;;;;;5064566;28;20217;-89
2021/01/02 00:03:57;;;;;;;15.65;11.13;;;3.30;99.90;;;;;;5068974;28;20565;-87
2021/01/02 00:06:42;;;;;;;16.25;10.70;;;3.10;99.90;;;;;;5058533;28;20272;-87
2021/01/02 00:09:15;;;;;;;17.48;10.27;;;3.30;99.90;;;;;;5058306;28;20194;-86
2021/01/02 00:11:52;;;;;;;16.42;10.27;;;3.40;99.90;;;;;;5060214;28;20229;-87
2021/01/02 00:14:31;;;;;;;16.73;10.52;;;3.30;99.90;;;;;;5064272;28;20241;-87
2021/01/02 00:17:36;;;;;;;19.17;11.73;;;3.30;99.90;;;;;;5070812;28;20228;-87
2021/01/02 00:20:06;;;;;;;18.55;9.25;;;3.30;99.90;;;;;;5068020;28;20265;-86
2021/01/02 00:22:52;;;;;;;13.77;9.68;;;3.30;99.90;;;;;;5058367;28;20268;-86
2021/01/02 00:25:22;;;;;;;15.10;9.50;;;3.40;99.90;;;;;;5058939;28;20226;-86
2021/01/02 00:28:13;;;;;;;16.77;9.70;;;3.50;99.90;;;;;;5058474;28;20586;-87
2021/01/02 00:30:58;;;;;;;17.58;10.02;;;3.60;99.90;;;;;;5059505;28;20311;-87
2021/01/02 00:33:43;;;;;;;20.10;10.30;;;3.50;99.90;;;;;;5064754;28;20256;-87
2021/01/02 00:36:17;;;;;;;14.30;8.65;;;3.50;99.90;;;;;;5075118;28;20265;-85
2021/01/02 00:38:46;;;;;;;16.83;9.73;;;3.70;99.90;;;;;;5061606;28;20199;-85
2021/01/02 00:41:15;;;;;;;17.40;9.75;;;3.60;99.90;;;;;;5073396;28;20195;-85
2021/01/02 00:43:46;;;;;;;17.25;9.80;;;3.60;99.90;;;;;;5060077;28;20242;-85
2021/01/02 00:46:12;;;;;;;13.55;9.68;;;3.60;99.90;;;;;;5076757;28;20213;-85
2021/01/02 00:48:40;;;;;;;17.27;9.88;;;3.60;99.90;;;;;;5061852;28;20705;-85
2021/01/02 00:51:09;;;;;;;18.60;10.10;;;3.50;99.90;;;;;;5060949;28;20260;-85
2021/01/02 00:53:52;;;;;;;13.82;9.32;;;3.50;99.90;;;;;;5057879;28;20238;-87
2021/01/02 00:56:28;;;;;;;16.13;10.20;;;3.50;99.90;;;;;;5057026;28;20281;-86
2021/01/02 00:59:34;;;;;;;16.00;10.75;;;3.60;99.90;;;;;;5058678;28;20224;-87
2021/01/02 01:02:32;;;;;;;15.27;9.40;;;3.50;99.90;;;;;;5058580;28;20233;-88
2021/01/02 01:05:06;;;;;;;23.08;13.13;;;3.80;99.90;;;;;;5060127;28;20295;-85
2021/01/02 01:07:35;;;;;;;16.50;10.15;;;3.50;99.90;;;;;;5058588;28;20216;-87
2021/01/02 01:10:06;;;;;;;17.08;10.48;;;3.60;99.90;;;;;;5059885;28;20198;-87
2021/01/02 01:12:39;;;;;;;16.58;10.32;;;3.60;99.90;;;;;;5040849;28;20207;-86
2021/01/02 01:15:08;;;;;;;17.98;9.63;;;3.70;99.90;;;;;;5049375;28;20309;-87
2021/01/02 01:17:46;;;;;;;16.92;10.38;;;3.50;99.90;;;;;;5055750;28;20217;-87
2021/01/02 01:20:16;;;;;;;16.75;10.93;;;3.50;99.90;;;;;;5056272;28;20209;-86
2021/01/02 01:22:59;;;;;;;17.70;12.13;;;3.90;99.90;;;;;;5055075;28;20213;-84
2021/01/02 01:25:38;;;;;;;18.60;11.20;;;3.80;99.90;;;;;;5033976;28;20234;-84
2021/01/02 01:28:10;;;;;;;19.13;11.25;;;3.90;99.90;;;;;;5041176;28;20209;-87
2021/01/02 01:30:40;;;;;;;17.42;9.90;;;3.90;99.90;;;;;;5055655;28;20190;-87
2021/01/02 01:33:09;;;;;;;15.60;10.57;;;3.80;99.90;;;;;;5057826;28;20195;-87
2021/01/02 01:35:42;;;;;;;19.17;11.20;;;4.00;99.90;;;;;;5059360;28;20202;-85
2021/01/02 01:38:15;;;;;;;14.95;9.13;;;3.80;99.90;;;;;;5054620;28;20205;-85
2021/01/02 01:40:44;;;;;;;14.85;9.95;;;3.80;99.90;;;;;;5063416;28;20207;-85
2021/01/02 01:43:26;;;;;;;17.52;10.57;;;3.70;99.90;;;;;;5069034;28;20199;-84
2021/01/02 01:46:14;;;;;;;17.80;10.43;;;3.90;99.90;;;;;;5069176;28;20204;-85
2021/01/02 01:49:04;;;;;;;18.55;11.50;;;3.80;99.90;;;;;;5043013;28;20210;-85
2021/01/02 01:51:57;;;;;;;16.23;10.90;;;3.90;99.90;;;;;;5057379;28;20577;-85
2021/01/02 01:54:52;;;;;;;14.35;10.13;;;3.90;99.90;;;;;;5056533;28;20260;-85
2021/01/02 01:57:24;;;;;;;15.05;11.20;;;3.70;99.90;;;;;;5057016;28;20209;-85
2021/01/02 02:00:08;;;;;;;19.20;11.55;;;3.80;99.90;;;;;;5058608;28;20221;-85
2021/01/02 02:03:11;;;;;;;18.00;10.00;;;3.90;99.90;;;;;;5056919;28;20238;-85
2021/01/02 02:05:54;;;;;;;15.13;10.02;;;3.90;99.90;;;;;;4977645;28;20265;-85
2021/01/02 02:08:40;;;;;;;17.65;10.40;;;4.00;99.90;;;;;;4975634;28;20705;-85
2021/01/02 02:11:07;;;;;;;16.88;11.45;;;4.00;99.90;;;;;;5034569;28;20316;-85
2021/01/02 02:13:43;;;;;;;16.00;10.15;;;4.00;99.90;;;;;;5068668;28;20226;-85
2021/01/02 02:16:12;;;;;;;18.02;10.82;;;4.00;99.90;;;;;;5065047;28;20236;-86
2021/01/02 02:18:44;;;;;;;16.85;10.65;;;4.00;99.90;;;;;;5056295;28;20225;-85
2021/01/02 02:21:11;;;;;;;16.45;10.68;;;4.00;99.90;;;;;;5057285;28;20198;-86
2021/01/02 02:23:42;;;;;;;17.08;11.40;;;3.90;99.90;;;;;;5058343;28;20222;-85
2021/01/02 02:26:27;;;;;;;17.20;11.10;;;3.90;99.90;;;;;;5056612;28;20194;-85
2021/01/02 02:29:25;;;;;;;16.65;10.98;;;3.80;99.90;;;;;;5057145;28;20190;-85
2021/01/02 02:31:56;;;;;;;16.50;10.85;;;4.00;99.90;;;;;;5054037;28;20226;-85
2021/01/02 02:34:23;;;;;;;19.27;11.63;;;4.10;99.90;;;;;;5057509;28;20218;-86
2021/01/02 02:36:50;;;;;;;19.95;13.45;;;4.00;99.90;;;;;;5059632;28;20209;-86
2021/01/02 02:39:17;;;;;;;17.55;12.25;;;3.80;99.90;;;;;;5056866;28;20211;-85
2021/01/02 02:41:52;;;;;;;19.38;11.27;;;4.00;99.90;;;;;;5057932;28;20218;-85
2021/01/02 02:44:22;;;;;;;16.98;10.98;;;3.90;99.90;;;;;;5055652;28;20222;-85
2021/01/02 02:46:52;;;;;;;17.67;11.32;;;3.90;99.90;;;;;;5054987;28;20372;-85
2021/01/02 02:49:23;;;;;;;17.55;10.57;;;4.10;99.90;;;;;;5054129;28;20607;-85
2021/01/02 02:51:56;;;;;;;19.02;11.70;;;4.00;99.90;;;;;;5054401;28;20203;-85
2021/01/02 02:54:25;;;;;;;16.42;10.80;;;3.90;99.90;;;;;;5054165;28;20235;-85
2021/01/02 02:56:52;;;;;;;17.83;12.07;;;4.00;99.90;;;;;;5054662;28;20208;-86
2021/01/02 02:59:18;;;;;;;20.45;12.45;;;3.80;99.90;;;;;;5054623;28;20297;-85
2021/01/02 03:01:48;;;;;;;24.33;15.20;;;4.10;99.90;;;;;;5055011;28;20241;-86
2021/01/02 03:04:14;;;;;;;25.55;14.80;;;3.90;99.90;;;;;;5054928;28;20230;-85
2021/01/02 03:06:43;;;;;;;23.67;15.70;;;3.90;99.90;;;;;;5055851;28;20263;-85
2021/01/02 03:09:10;;;;;;;25.00;15.68;;;3.80;99.90;;;;;;5055331;28;20652;-85
2021/01/02 03:11:37;;;;;;;21.88;14.52;;;3.80;99.90;;;;;;5054803;28;20212;-85
2021/01/02 03:14:04;;;;;;;23.45;14.00;;;3.70;99.90;;;;;;5056090;28;20563;-85
2021/01/02 03:16:32;;;;;;;22.25;13.90;;;3.80;99.90;;;;;;5057958;28;20206;-85
2021/01/02 03:19:00;;;;;;;24.08;14.95;;;3.80;99.90;;;;;;5057223;28;20278;-85
2021/01/02 03:21:27;;;;;;;20.17;12.52;;;4.00;99.90;;;;;;5058501;28;20213;-85
2021/01/02 03:23:57;;;;;;;19.73;12.68;;;3.80;99.90;;;;;;5067008;28;20234;-85
2021/01/02 03:26:26;;;;;;;21.60;14.27;;;3.70;99.90;;;;;;5059664;28;20251;-85
2021/01/02 03:28:54;;;;;;;22.00;13.50;;;3.80;99.90;;;;;;5055175;28;20198;-85
2021/01/02 03:31:21;;;;;;;25.20;14.80;;;3.80;99.90;;;;;;5056005;28;20202;-85
2021/01/02 03:33:48;;;;;;;24.25;14.95;;;3.80;99.90;;;;;;5061159;28;20226;-85
2021/01/02 03:36:15;;;;;;;21.83;14.18;;;3.60;99.90;;;;;;5064006;28;20278;-85
2021/01/02 03:38:52;;;;;;;23.05;14.50;;;3.50;99.90;;;;;;5069819;28;20348;-85
2021/01/02 03:41:19;;;;;;;23.33;15.77;;;3.50;99.90;;;;;;5076315;28;20277;-85
2021/01/02 03:43:46;;;;;;;21.92;13.65;;;3.60;99.90;;;;;;5074905;28;20218;-86
2021/01/02 03:46:12;;;;;;;25.30;16.67;;;3.60;99.90;;;;;;5063510;28;20289;-85
2021/01/02 03:48:39;;;;;;;24.45;14.95;;;3.60;99.90;;;;;;5068402;28;20293;-85
2021/01/02 03:51:06;;;;;;;20.42;14.20;;;3.40;99.90;;;;;;5062620;28;20294;-85
2021/01/02 03:53:33;;;;;;;20.27;14.02;;;3.40;99.90;;;;;;5059511;28;20318;-84
2021/01/02 03:55:59;;;;;;;23.38;15.35;;;3.50;99.90;;;;;;5069754;28;20604;-85
2021/01/02 03:58:27;;;;;;;20.90;13.02;;;3.50;99.90;;;;;;5076336;28;20210;-85
2021/01/02 04:00:54;;;;;;;26.80;14.10;;;3.60;99.90;;;;;;5074731;28;20312;-85
2021/01/02 04:03:20;;;;;;;21.80;14.88;;;3.60;99.90;;;;;;5077180;28;20210;-84
2021/01/02 04:05:47;;;;;;;24.73;15.95;;;3.50;99.90;;;;;;5077039;28;20190;-84
2021/01/02 04:08:14;;;;;;;22.05;15.30;;;3.50;99.90;;;;;;5067152;28;20213;-85
2021/01/02 04:10:41;;;;;;;21.15;13.55;;;3.60;99.90;;;;;;5059968;28;20213;-86
2021/01/02 04:13:08;;;;;;;20.63;12.65;;;3.60;99.90;;;;;;5059778;28;20206;-85
2021/01/02 04:15:36;;;;;;;22.05;12.40;;;3.60;99.90;;;;;;5057543;28;20202;-86
2021/01/02 04:18:02;;;;;;;23.85;14.10;;;3.40;99.90;;;;;;5054663;28;20206;-86
2021/01/02 04:20:29;;;;;;;20.05;14.52;;;3.40;99.90;;;;;;5055721;28;20360;-86
2021/01/02 04:22:56;;;;;;;20.92;14.02;;;3.40;99.90;;;;;;5054985;28;20265;-86
2021/01/02 04:25:22;;;;;;;19.50;12.35;;;3.30;99.90;;;;;;5055450;28;20226;-85
2021/01/02 04:27:49;;;;;;;20.55;12.85;;;3.40;99.90;;;;;;5058154;28;20278;-85
2021/01/02 04:30:17;;;;;;;20.77;14.45;;;3.40;99.90;;;;;;5068812;28;20210;-85
2021/01/02 04:32:48;;;;;;;21.70;13.65;;;3.40;99.90;;;;;;5066867;28;20216;-86
2021/01/02 04:35:15;;;;;;;25.40;14.57;;;3.40;99.90;;;;;;5054987;28;20518;-86
2021/01/02 04:37:41;;;;;;;20.88;12.90;;;3.20;99.90;;;;;;5053940;28;20294;-87
2021/01/02 04:40:10;;;;;;;18.15;12.85;;;3.30;99.90;;;;;;5056131;28;20662;-87
2021/01/02 04:42:41;;;;;;;19.10;13.07;;;3.30;99.90;;;;;;5055225;28;20218;-86
2021/01/02 04:45:08;;;;;;;23.95;13.60;;;3.30;99.90;;;;;;5056503;28;20257;-87
2021/01/02 04:47:37;;;;;;;19.45;13.52;;;3.20;99.90;;;;;;5056566;28;20289;-86
2021/01/02 04:50:07;;;;;;;21.52;15.23;;;3.50;99.90;;;;;;5056016;28;20613;-88
2021/01/02 04:52:34;;;;;;;21.73;12.23;;;3.50;99.90;;;;;;5056171;28;20202;-88
2021/01/02 04:55:04;;;;;;;23.25;13.52;;;3.20;99.90;;;;;;5055416;28;20230;-87
2021/01/02 04:57:34;;;;;;;20.60;11.65;;;3.20;99.90;;;;;;5063156;28;20210;-88
2021/01/02 05:00:02;;;;;;;19.83;13.43;;;3.10;99.90;;;;;;5056671;28;20211;-88
2021/01/02 05:02:30;;;;;;;22.67;15.43;;;3.30;99.90;;;;;;5055728;28;20581;-87
2021/01/02 05:04:57;;;;;;;23.05;14.38;;;3.00;99.90;;;;;;5057094;28;20229;-88
2021/01/02 05:07:27;;;;;;;19.13;12.60;;;3.20;99.90;;;;;;5059048;28;20256;-86
2021/01/02 05:09:54;;;;;;;20.65;11.95;;;3.50;99.90;;;;;;5055768;28;20207;-86
2021/01/02 05:12:25;;;;;;;20.67;12.63;;;3.40;99.90;;;;;;5054687;28;20199;-88
2021/01/02 05:15:00;;;;;;;19.05;12.40;;;3.20;99.90;;;;;;5055765;28;20632;-87
2021/01/02 05:17:27;;;;;;;23.70;12.40;;;3.30;99.90;;;;;;5055785;28;20206;-87
2021/01/02 05:20:02;;;;;;;21.88;12.15;;;3.30;99.90;;;;;;5055521;28;20205;-87
2021/01/02 05:22:29;;;;;;;21.33;11.63;;;3.30;99.90;;;;;;5055034;28;20233;-86
2021/01/02 05:25:14;;;;;;;21.20;11.70;;;3.30;99.90;;;;;;5056487;28;20241;-87
2021/01/02 05:27:43;;;;;;;22.63;11.25;;;3.20;99.90;;;;;;5035869;28;20207;-87
2021/01/02 05:30:26;;;;;;;22.10;11.60;;;3.10;99.90;;;;;;5037416;28;20211;-87
2021/01/02 05:32:58;;;;;;;19.55;12.10;;;3.10;99.90;;;;;;5054883;28;20208;-88
2021/01/02 05:35:27;;;;;;;24.38;13.27;;;3.00;99.90;;;;;;5055106;28;20314;-86
2021/01/02 05:37:54;;;;;;;20.25;12.57;;;3.20;99.90;;;;;;5054410;28;20206;-87
2021/01/02 05:40:34;;;;;;;22.48;12.95;;;3.10;99.90;;;;;;5055214;28;20206;-86
2021/01/02 05:43:01;;;;;;;24.15;14.00;;;3.00;99.90;;;;;;5054110;28;20240;-86
2021/01/02 05:45:29;;;;;;;24.10;13.85;;;3.10;99.90;;;;;;5054804;28;20198;-87
2021/01/02 05:48:11;;;;;;;26.30;13.55;;;3.20;99.90;;;;;;5054655;28;20217;-86
2021/01/02 05:50:46;;;;;;;26.95;16.25;;;2.90;99.90;;;;;;5055229;28;20195;-87
2021/01/02 05:53:23;;;;;;;27.10;16.55;;;2.90;99.90;;;;;;5054853;28;20190;-86
2021/01/02 05:56:06;;;;;;;27.00;16.20;;;2.80;99.90;;;;;;5054094;28;20226;-87
2021/01/02 05:58:34;;;;;;;26.85;13.15;;;3.00;99.90;;;;;;5054899;28;20207;-88
2021/01/02 06:01:06;;;;;;;31.33;13.63;;;2.80;99.90;;;;;;5055006;28;20297;-87
2021/01/02 06:03:33;;;;;;;30.70;17.92;;;2.90;99.90;;;;;;5057664;28;20250;-87
2021/01/02 06:06:02;;;;;;;29.75;16.80;;;3.20;99.90;;;;;;5057593;28;20214;-87
2021/01/02 06:08:35;;;;;;;34.88;17.33;;;3.10;99.90;;;;;;5057440;28;20210;-88
2021/01/02 06:11:05;;;;;;;32.42;16.65;;;3.10;99.90;;;;;;5054597;28;20191;-87
2021/01/02 06:13:34;;;;;;;39.90;19.67;;;2.90;99.90;;;;;;5054355;28;20235;-87
2021/01/02 06:16:04;;;;;;;41.22;20.10;;;2.90;99.90;;;;;;5055046;28;20203;-87
2021/01/02 06:18:33;;;;;;;31.27;16.10;;;3.00;99.90;;;;;;5055532;28;20202;-88
2021/01/02 06:21:02;;;;;;;41.80;20.00;;;3.20;99.90;;;;;;5055068;28;20215;-86
2021/01/02 06:23:29;;;;;;;40.38;20.27;;;2.90;99.90;;;;;;5051262;28;20704;-86
2021/01/02 06:25:57;;;;;;;42.40;19.42;;;2.90;99.90;;;;;;5060877;28;20228;-85
2021/01/02 06:28:26;;;;;;;39.47;19.90;;;2.80;99.90;;;;;;5063532;28;20213;-86
2021/01/02 06:31:00;;;;;;;39.72;19.35;;;3.10;99.90;;;;;;5054624;28;20695;-86
2021/01/02 06:33:27;;;;;;;48.60;19.30;;;3.10;99.90;;;;;;5052150;28;20233;-87
2021/01/02 06:35:54;;;;;;;44.80;19.52;;;3.00;99.90;;;;;;5052758;28;20289;-86
2021/01/02 06:38:22;;;;;;;41.95;20.45;;;3.20;99.90;;;;;;5051758;28;20199;-86
2021/01/02 06:40:50;;;;;;;41.35;19.60;;;3.30;99.90;;;;;;5051573;28;20629;-86
2021/01/02 06:43:19;;;;;;;36.10;19.27;;;3.00;99.90;;;;;;5049922;28;20274;-86
2021/01/02 06:46:00;;;;;;;42.13;19.73;;;3.40;99.90;;;;;;5056917;28;20203;-86
2021/01/02 06:48:40;;;;;;;46.13;17.92;;;3.20;99.90;;;;;;5064471;28;20217;-86
2021/01/02 06:51:27;;;;;;;45.35;21.15;;;3.20;99.90;;;;;;5052431;28;20210;-87
2021/01/02 06:53:54;;;;;;;46.55;21.27;;;2.80;99.90;;;;;;5052016;28;20226;-87
2021/01/02 06:56:33;;;;;;;41.50;20.80;;;3.00;99.90;;;;;;5052758;28;20274;-87
2021/01/02 06:59:01;;;;;;;41.13;19.85;;;2.90;99.90;;;;;;5034315;28;20206;-86
2021/01/02 07:01:41;;;;;;;39.35;21.30;;;2.90;99.90;;;;;;5049469;28;20261;-86
2021/01/02 07:04:08;;;;;;;36.15;17.25;;;2.90;99.90;;;;;;5051885;28;20238;-86
2021/01/02 07:06:45;;;;;;;42.05;20.73;;;3.00;99.90;;;;;;5039132;28;20211;-86
2021/01/02 07:09:26;;;;;;;37.55;19.02;;;2.80;99.90;;;;;;5063549;28;20222;-86
2021/01/02 07:12:12;;;;;;;47.28;21.48;;;2.90;99.90;;;;;;5064065;28;20195;-87
2021/01/02 07:14:40;;;;;;;39.13;18.90;;;2.90;99.90;;;;;;5046486;28;20237;-86
2021/01/02 07:17:09;;;;;;;36.00;17.55;;;2.90;99.90;;;;;;5055123;28;20210;-86
2021/01/02 07:19:47;;;;;;;29.30;16.23;;;2.90;99.90;;;;;;5069209;28;20218;-87
2021/01/02 07:22:26;;;;;;;44.10;19.67;;;3.00;99.90;;;;;;5061384;28;20225;-86
2021/01/02 07:25:01;;;;;;;35.17;17.30;;;2.80;99.90;;;;;;5065452;28;20338;-86
2021/01/02 07:27:30;;;;;;;33.67;16.20;;;2.80;99.90;;;;;;5067790;28;20198;-86
2021/01/02 07:30:02;;;;;;;27.75;17.58;;;2.90;99.90;;;;;;5059836;28;20207;-86
2021/01/02 07:32:30;;;;;;;33.40;18.10;;;2.90;99.90;;;;;;5054070;28;20206;-86
2021/01/02 07:34:58;;;;;;;30.30;14.73;;;2.80;99.90;;;;;;5050835;28;20233;-86
2021/01/02 07:37:26;;;;;;;35.08;16.40;;;2.90;99.90;;;;;;5049732;28;20206;-88
2021/01/02 07:40:00;;;;;;;31.35;16.70;;;2.90;99.90;;;;;;5056590;28;20217;-88
2021/01/02 07:42:29;;;;;;;25.88;14.43;;;2.90;99.90;;;;;;5056626;28;20244;-88
2021/01/02 07:45:02;;;;;;;29.25;14.93;;;3.10;99.90;;;;;;5053022;28;20230;-86
2021/01/02 07:47:29;;;;;;;28.35;14.35;;;3.00;99.90;;;;;;5039248;28;20942;-87
2021/01/02 07:50:06;;;;;;;33.30;15.38;;;3.10;99.90;;;;;;5051467;28;20202;-86
2021/01/02 07:52:32;;;;;;;30.27;15.85;;;3.30;99.90;;;;;;5053202;28;20213;-86
2021/01/02 07:55:06;;;;;;;33.10;16.00;;;3.20;99.90;;;;;;5056160;28;20245;-86
2021/01/02 07:57:33;;;;;;;34.15;18.02;;;3.10;99.90;;;;;;5060826;28;20241;-86
2021/01/02 08:00:00;;;;;;;31.75;17.08;;;3.20;99.90;;;;;;5059499;28;20278;-86
2021/01/02 08:02:28;;;;;;;34.80;16.58;;;3.10;99.90;;;;;;5055492;28;20245;-86
2021/01/02 08:04:55;;;;;;;30.02;15.02;;;3.10;99.90;;;;;;5055448;28;20494;-86
2021/01/02 08:07:24;;;;;;;30.17;15.65;;;3.00;99.90;;;;;;5061662;28;20210;-86
2021/01/02 08:09:51;;;;;;;30.45;16.77;;;2.90;99.90;;;;;;5052480;28;20317;-85
2021/01/02 08:12:19;;;;;;;32.47;17.85;;;3.00;99.90;;;;;;5052400;28;20179;-86
2021/01/02 08:14:48;;;;;;;30.17;15.55;;;3.10;99.90;;;;;;5067568;28;20261;-86
2021/01/02 08:17:17;;;;;;;29.63;15.40;;;3.10;99.90;;;;;;5068475;28;20327;-85
2021/01/02 08:19:56;;;;;;;30.20;15.68;;;3.20;99.90;;;;;;5070538;28;20207;-88
2021/01/02 08:22:30;;;;;;;24.65;14.23;;;3.20;99.90;;;;;;5070923;28;20244;-87
2021/01/02 08:24:57;;;;;;;27.77;17.10;;;3.20;99.90;;;;;;5070375;28;20766;-88
2021/01/02 08:27:26;;;;;;;31.30;15.07;;;3.00;99.90;;;;;;5070712;28;20206;-87
2021/01/02 08:29:53;;;;;;;30.02;15.93;;;3.00;99.90;;;;;;5063438;28;20550;-88
2021/01/02 08:32:24;;;;;;;31.83;16.13;;;3.10;99.90;;;;;;5050176;28;20199;-79
2021/01/02 08:34:53;;;;;;;32.40;16.25;;;3.00;99.90;;;;;;5052488;28;20282;-78
2021/01/02 08:37:21;;;;;;;35.30;16.42;;;3.00;99.90;;;;;;5040733;28;20277;-88
2021/01/02 08:39:48;;;;;;;33.33;16.60;;;3.20;99.90;;;;;;5037175;28;20206;-86
2021/01/02 08:42:14;;;;;;;29.63;15.60;;;3.30;99.90;;;;;;5036973;28;20226;-86
2021/01/02 08:44:46;;;;;;;30.90;15.00;;;3.40;99.90;;;;;;5038264;28;20290;-86
2021/01/02 08:47:24;;;;;;;27.73;15.38;;;3.50;99.90;;;;;;5039353;28;20215;-87
2021/01/02 08:49:51;;;;;;;31.42;15.15;;;3.20;99.90;;;;;;5043805;28;20202;-87
2021/01/02 08:52:25;;;;;;;31.20;15.05;;;3.30;99.90;;;;;;5051968;28;20565;-88
2021/01/02 08:55:11;;;;;;;30.95;15.18;;;3.20;99.90;;;;;;5051783;28;20341;-87
2021/01/02 08:57:43;;;;;;;31.80;15.18;;;3.20;99.90;;;;;;5054503;28;20190;-86
2021/01/02 09:00:19;;;;;;;36.53;17.35;;;3.30;99.90;;;;;;5048075;28;20267;-86
2021/01/02 09:02:49;;;;;;;27.38;14.82;;;3.20;99.90;;;;;;5043923;28;20288;-86
2021/01/02 09:05:17;;;;;;;33.97;15.88;;;3.10;99.90;;;;;;5048355;28;20288;-85
2021/01/02 09:07:58;;;;;;;30.30;16.70;;;3.30;99.90;;;;;;5056117;28;20275;-83
2021/01/02 09:10:29;;;;;;;31.42;16.05;;;3.30;99.90;;;;;;5059267;28;20191;-88
2021/01/02 09:13:21;;;;;;;40.10;17.25;;;3.20;99.90;;;;;;5063759;28;20206;-87
2021/01/02 09:15:50;;;;;;;36.17;17.55;;;3.60;99.90;;;;;;5057418;28;20207;-84
2021/01/02 09:18:34;;;;;;;29.20;15.77;;;3.50;99.90;;;;;;5038529;28;20218;-85
2021/01/02 09:21:20;;;;;;;25.20;14.32;;;3.50;99.90;;;;;;5056924;28;20203;-84
2021/01/02 09:23:46;;;;;;;31.13;16.50;;;3.50;99.90;;;;;;5056902;28;20226;-85
2021/01/02 09:26:32;;;;;;;24.02;13.23;;;3.50;99.90;;;;;;5058289;28;20199;-84
2021/01/02 09:29:01;;;;;;;28.70;16.55;;;3.60;99.90;;;;;;5054447;28;20210;-84
2021/01/02 09:31:28;;;;;;;31.58;17.40;;;3.60;99.90;;;;;;5056448;28;20258;-84
2021/01/02 09:33:56;;;;;;;26.20;14.57;;;3.40;99.90;;;;;;5049349;28;20231;-84
2021/01/02 09:36:25;;;;;;;31.42;15.88;;;3.50;99.90;;;;;;5041094;28;20234;-82
2021/01/02 09:38:51;;;;;;;31.52;15.60;;;3.60;99.90;;;;;;5036313;28;20203;-83
2021/01/02 09:41:21;;;;;;;35.53;18.35;;;3.50;99.90;;;;;;5054397;28;20247;-83
2021/01/02 09:43:48;;;;;;;28.63;15.45;;;3.50;99.90;;;;;;5056696;28;20241;-83
2021/01/02 09:46:17;;;;;;;31.08;16.08;;;3.60;99.90;;;;;;5039611;28;20203;-83
2021/01/02 09:48:46;;;;;;;31.00;16.45;;;3.40;99.90;;;;;;5050292;28;20213;-83
2021/01/02 09:51:13;;;;;;;30.70;16.45;;;3.70;99.90;;;;;;5043354;28;20203;-84
2021/01/02 09:53:40;;;;;;;27.40;15.25;;;3.60;99.90;;;;;;5041979;28;20425;-80
2021/01/02 09:56:06;;;;;;;36.95;17.52;;;3.80;99.90;;;;;;5045690;28;20230;-83
2021/01/02 09:58:34;;;;;;;34.65;17.83;;;3.80;99.90;;;;;;5040252;28;20237;-78
2021/01/02 10:01:01;;;;;;;33.17;18.05;;;3.60;99.90;;;;;;5057132;28;20219;-83
2021/01/02 10:03:27;;;;;;;33.70;16.83;;;3.80;99.90;;;;;;5063552;28;20338;-84
2021/01/02 10:05:54;;;;;;;29.50;17.23;;;3.90;99.90;;;;;;5049542;28;20214;-84
2021/01/02 10:08:21;;;;;;;31.63;15.18;;;3.70;99.90;;;;;;5058225;28;20203;-78
2021/01/02 10:10:47;;;;;;;28.95;17.17;;;3.70;99.90;;;;;;5057312;28;20206;-76
2021/01/02 10:13:15;;;;;;;32.63;17.48;;;3.60;99.90;;;;;;5048602;28;20225;-75
2021/01/02 10:15:42;;;;;;;32.38;17.88;;;3.70;99.90;;;;;;5050068;28;20265;-77
2021/01/02 10:18:09;;;;;;;26.33;14.40;;;3.80;99.90;;;;;;5084741;22;20239;-81
2021/01/02 10:20:36;;;;;;;31.15;12.57;;;3.70;99.90;;;;;;5056992;28;20211;-83
2021/01/02 10:23:03;;;;;;;22.35;12.88;;;3.70;99.90;;;;;;5056430;28;20215;-81
2021/01/02 10:25:31;;;;;;;26.90;14.95;;;3.70;99.90;;;;;;5051054;28;20237;-79
2021/01/02 10:27:57;;;;;;;19.70;10.05;;;3.90;99.90;;;;;;5061793;28;20227;-81
2021/01/02 10:30:25;;;;;;;26.80;14.52;;;3.80;99.90;;;;;;5058956;28;20936;-79
2021/01/02 10:32:52;;;;;;;25.30;12.90;;;3.40;99.90;;;;;;5061818;28;20199;-80
2021/01/02 10:35:19;;;;;;;24.80;11.23;;;3.70;99.90;;;;;;5053065;28;20200;-80
2021/01/02 10:37:48;;;;;;;26.65;16.38;;;3.60;99.90;;;;;;5048944;28;20232;-83
2021/01/02 10:40:16;;;;;;;31.88;15.13;;;3.60;99.90;;;;;;5059223;28;20203;-82
2021/01/02 10:42:43;;;;;;;26.63;13.98;;;3.90;99.90;;;;;;5057989;28;20222;-80
2021/01/02 10:45:12;;;;;;;28.13;16.80;;;4.00;99.90;;;;;;5059069;28;20242;-82
2021/01/02 10:47:39;;;;;;;29.23;14.35;;;3.70;99.90;;;;;;5059831;28;20213;-79
2021/01/02 10:50:11;;;;;;;25.98;15.77;;;3.70;99.90;;;;;;5059512;28;20202;-81
2021/01/02 10:52:37;;;;;;;27.00;16.35;;;3.60;99.90;;;;;;5059278;28;20190;-83
2021/01/02 10:55:05;;;;;;;18.13;10.68;;;3.70;99.90;;;;;;5061271;28;20210;-86
2021/01/02 10:57:32;;;;;;;23.08;14.35;;;4.00;99.90;;;;;;5045492;28;20294;-85
2021/01/02 10:59:59;;;;;;;27.15;16.38;;;3.90;99.90;;;;;;5041276;28;20231;-84
2021/01/02 11:02:25;;;;;;;29.88;15.98;;;3.70;99.90;;;;;;5061500;28;20222;-86
2021/01/02 11:04:53;;;;;;;24.77;14.52;;;3.80;99.90;;;;;;5058674;28;20202;-79
2021/01/02 11:07:23;;;;;;;21.25;13.85;;;3.70;99.90;;;;;;5057936;28;20313;-80
2021/01/02 11:09:51;;;;;;;25.40;13.93;;;4.10;99.90;;;;;;5059165;28;20217;-80
2021/01/02 11:12:18;;;;;;;20.77;11.07;;;3.80;99.90;;;;;;5056302;28;20225;-86
2021/01/02 11:14:45;;;;;;;21.10;11.05;;;4.00;99.90;;;;;;5062356;28;20198;-79
2021/01/02 11:17:12;;;;;;;14.80;7.07;;;4.00;99.90;;;;;;5064474;28;20217;-81
2021/01/02 11:19:38;;;;;;;22.35;11.13;;;3.80;99.90;;;;;;5060879;28;20325;-80
2021/01/02 11:22:05;;;;;;;26.92;13.27;;;3.90;99.90;;;;;;5060110;28;20265;-80
2021/01/02 11:24:39;;;;;;;29.25;16.80;;;3.60;99.90;;;;;;5059791;28;20199;-80
2021/01/02 11:27:06;;;;;;;28.52;14.73;;;3.70;99.90;;;;;;5056932;28;20213;-81
2021/01/02 11:29:33;;;;;;;17.98;9.45;;;3.80;99.90;;;;;;5056891;28;20710;-81
2021/01/02 11:32:02;;;;;;;21.63;13.57;;;3.90;99.90;;;;;;5068879;28;20220;-78
2021/01/02 11:34:29;;;;;;;25.48;13.60;;;4.10;99.90;;;;;;5068894;28;20207;-79
2021/01/02 11:36:59;;;;;;;26.52;15.88;;;4.10;99.90;;;;;;5058005;28;20264;-78
2021/01/02 11:39:26;;;;;;;24.73;13.88;;;3.90;99.90;;;;;;5064435;28;20218;-78
2021/01/02 11:41:53;;;;;;;19.50;10.77;;;4.10;99.90;;;;;;5066190;28;20206;-79
2021/01/02 11:44:23;;;;;;;27.02;15.35;;;4.20;99.90;;;;;;5062506;28;20215;-81
2021/01/02 11:46:52;;;;;;;23.92;11.45;;;4.10;99.90;;;;;;5050887;28;20207;-80
2021/01/02 11:49:20;;;;;;;28.35;15.20;;;3.80;99.90;;;;;;5056505;28;20636;-80
2021/01/02 11:51:48;;;;;;;21.23;12.60;;;3.80;99.90;;;;;;5058843;28;20394;-80
2021/01/02 11:54:15;;;;;;;27.73;14.75;;;3.90;99.90;;;;;;5063451;28;20213;-79
2021/01/02 11:56:41;;;;;;;22.25;13.25;;;3.90;99.90;;;;;;5055107;28;20207;-80
2021/01/02 11:59:09;;;;;;;14.93;9.02;;;3.80;99.90;;;;;;5070403;28;20281;-80
2021/01/02 12:01:37;;;;;;;23.00;14.40;;;4.10;99.90;;;;;;5070544;28;20199;-80
2021/01/02 12:04:05;;;;;;;25.20;15.60;;;4.10;99.90;;;;;;5069824;28;20736;-80
2021/01/02 12:06:33;;;;;;;21.10;11.00;;;3.90;99.90;;;;;;5063919;28;20206;-81
2021/01/02 12:08:59;;;;;;;22.90;14.05;;;4.00;99.90;;;;;;5061011;28;20294;-81
2021/01/02 12:11:28;;;;;;;20.05;12.55;;;3.90;99.90;;;;;;5059574;28;20623;-79
2021/01/02 12:13:55;;;;;;;21.92;13.60;;;4.00;99.90;;;;;;5064879;28;20195;-80
2021/01/02 12:16:29;;;;;;;20.33;10.30;;;4.00;99.90;;;;;;5052175;28;20218;-81
2021/01/02 12:18:56;;;;;;;23.30;14.63;;;3.90;99.90;;;;;;5060055;28;20233;-80
2021/01/02 12:21:23;;;;;;;21.55;13.38;;;3.80;99.90;;;;;;5058613;28;20214;-79
2021/01/02 12:23:58;;;;;;;18.73;10.10;;;3.80;99.90;;;;;;5058392;28;20219;-79
2021/01/02 12:26:26;;;;;;;24.98;14.02;;;4.00;99.90;;;;;;5055274;28;20206;-79
2021/01/02 12:28:53;;;;;;;20.70;11.05;;;3.90;99.90;;;;;;5071535;28;20227;-79
2021/01/02 12:31:23;;;;;;;26.40;15.18;;;4.00;99.90;;;;;;5066379;28;20214;-80
2021/01/02 12:33:50;;;;;;;25.23;13.68;;;4.00;99.90;;;;;;5056092;28;20644;-79
2021/01/02 12:36:19;;;;;;;21.70;11.57;;;4.10;99.90;;;;;;5053996;28;20241;-77
2021/01/02 12:38:46;;;;;;;19.35;10.65;;;3.90;99.90;;;;;;5054957;28;20241;-79
2021/01/02 12:41:14;;;;;;;16.02;7.07;;;4.00;99.90;;;;;;5055684;28;20256;-79
2021/01/02 12:43:42;;;;;;;15.52;9.77;;;4.00;99.90;;;;;;5056316;28;20234;-86
2021/01/02 12:46:09;;;;;;;14.48;7.78;;;4.10;99.90;;;;;;5039906;28;20203;-79
2021/01/02 12:48:36;;;;;;;15.52;7.82;;;4.00;99.90;;;;;;5036280;28;20279;-79
2021/01/02 12:51:04;;;;;;;27.08;12.20;;;3.80;99.90;;;;;;5047449;28;20209;-86
2021/01/02 12:53:31;;;;;;;26.30;16.10;;;3.70;99.90;;;;;;5065717;28;20202;-77
2021/01/02 12:55:57;;;;;;;27.90;15.88;;;3.70;99.90;;;;;;5060758;28;20226;-80
2021/01/02 12:58:24;;;;;;;21.85;12.82;;;3.90;99.90;;;;;;5060811;28;20251;-79